Time;durP1;ratioP1;P1;durP2;ratioP2;P2;SDS_P1;SDS_P2;PMS_P1;PMS_P2;Temp;Humidity;BMP_temperature;BMP_pressure;BME280_temperature;BME280_humidity;BME280_pressure;Samples;Min_cycle;Max_cycle;Signal;HPM_P1;HPM_P2
2021/10/15 00:00:55;;;;;;;21.08;13.85;;;14.20;89.80;;;;;;5001564;28;20053;-66
2021/10/15 00:03:20;;;;;;;20.48;13.40;;;14.10;90.00;;;;;;5001661;28;20033;-65
2021/10/15 00:05:46;;;;;;;19.70;13.35;;;14.10;90.10;;;;;;5000875;28;20477;-66
2021/10/15 00:08:12;;;;;;;18.13;12.85;;;14.10;90.00;;;;;;5000369;28;20025;-66
2021/10/15 00:10:37;;;;;;;19.60;12.35;;;14.00;90.20;;;;;;5002141;28;20060;-66
2021/10/15 00:13:03;;;;;;;17.23;11.93;;;14.00;90.10;;;;;;5000967;28;20570;-66
2021/10/15 00:15:29;;;;;;;18.55;11.98;;;14.00;90.20;;;;;;5001824;28;20038;-65
2021/10/15 00:17:54;;;;;;;17.05;11.60;;;13.90;90.20;;;;;;5000467;28;20038;-65
2021/10/15 00:20:20;;;;;;;16.15;12.07;;;14.00;90.30;;;;;;5001070;28;20038;-65
2021/10/15 00:22:46;;;;;;;16.08;11.57;;;14.00;90.20;;;;;;4991784;28;20494;-66
2021/10/15 00:25:11;;;;;;;20.30;11.02;;;13.90;90.00;;;;;;5000940;28;20033;-66
2021/10/15 00:27:37;;;;;;;15.80;10.80;;;13.90;90.30;;;;;;5000978;28;20030;-66
2021/10/15 00:30:03;;;;;;;16.33;11.27;;;13.90;90.20;;;;;;4983071;28;20033;-65
2021/10/15 00:32:29;;;;;;;16.42;11.80;;;14.00;90.10;;;;;;5002001;28;20030;-66
2021/10/15 00:34:54;;;;;;;13.63;10.68;;;14.00;90.00;;;;;;5001560;28;20418;-66
2021/10/15 00:37:20;;;;;;;14.13;10.98;;;14.10;90.00;;;;;;4998959;28;20569;-65
2021/10/15 00:39:47;;;;;;;16.75;11.05;;;14.00;90.00;;;;;;5000304;28;20029;-65
2021/10/15 00:42:13;;;;;;;14.75;10.77;;;14.00;90.00;;;;;;4998995;28;20037;-65
2021/10/15 00:44:40;;;;;;;14.38;9.82;;;14.00;89.60;;;;;;5001796;28;20026;-65
2021/10/15 00:47:06;;;;;;;14.63;10.57;;;14.00;89.90;;;;;;5000553;28;20151;-65
2021/10/15 00:49:32;;;;;;;19.48;10.60;;;14.00;89.80;;;;;;4998358;28;20557;-65
2021/10/15 00:51:59;;;;;;;13.93;10.13;;;14.10;89.80;;;;;;4999300;28;20573;-66
2021/10/15 00:54:24;;;;;;;13.68;10.07;;;14.10;89.30;;;;;;5000529;28;20049;-66
2021/10/15 00:56:50;;;;;;;13.27;10.20;;;14.00;89.40;;;;;;4981390;28;20119;-66
2021/10/15 00:59:16;;;;;;;14.07;10.07;;;14.10;89.40;;;;;;4999370;28;20030;-65
2021/10/15 01:01:42;;;;;;;14.05;10.43;;;14.00;89.30;;;;;;4994780;28;20026;-65
2021/10/15 01:04:08;;;;;;;14.45;9.57;;;13.90;89.50;;;;;;5001509;28;20490;-66
2021/10/15 01:06:35;;;;;;;13.10;10.38;;;13.90;89.70;;;;;;4997946;28;20680;-65
2021/10/15 01:09:02;;;;;;;14.82;10.55;;;13.90;89.90;;;;;;4998196;28;20042;-65
2021/10/15 01:11:28;;;;;;;14.30;9.63;;;13.90;89.30;;;;;;4981010;28;20041;-66
2021/10/15 01:13:54;;;;;;;17.25;10.75;;;13.90;89.60;;;;;;5000651;28;20212;-65
2021/10/15 01:16:25;;;;;;;15.60;9.50;;;13.90;89.40;;;;;;5002020;28;20045;-65
2021/10/15 01:18:51;;;;;;;14.40;10.07;;;14.00;89.00;;;;;;5000318;28;20072;-65
2021/10/15 01:21:16;;;;;;;13.23;9.55;;;14.00;89.00;;;;;;5000107;28;20108;-65
2021/10/15 01:23:43;;;;;;;13.50;9.38;;;14.00;88.60;;;;;;5001452;28;20708;-66
2021/10/15 01:26:09;;;;;;;13.68;8.98;;;13.90;88.80;;;;;;5000807;28;20065;-66
2021/10/15 01:28:35;;;;;;;12.05;9.63;;;14.00;88.90;;;;;;4980638;28;20577;-65
2021/10/15 01:31:01;;;;;;;13.57;9.15;;;14.00;88.60;;;;;;5000817;28;20836;-66
2021/10/15 01:33:27;;;;;;;14.90;8.70;;;13.90;88.60;;;;;;4998172;28;20038;-65
2021/10/15 01:35:52;;;;;;;11.05;9.02;;;13.80;89.10;;;;;;4998974;28;20172;-65
2021/10/15 01:38:19;;;;;;;10.68;8.55;;;13.80;89.60;;;;;;4981423;28;20052;-66
2021/10/15 01:40:45;;;;;;;13.52;9.32;;;13.80;89.40;;;;;;4999648;28;20096;-65
2021/10/15 01:43:18;;;;;;;14.38;9.80;;;13.80;89.30;;;;;;4989593;28;20128;-65
2021/10/15 01:45:44;;;;;;;12.00;8.88;;;13.80;89.20;;;;;;5000078;28;20149;-65
2021/10/15 01:48:10;;;;;;;12.85;9.18;;;13.80;89.40;;;;;;5000390;28;20121;-65
2021/10/15 01:50:35;;;;;;;14.18;9.25;;;13.80;89.00;;;;;;5003864;28;20424;-65
2021/10/15 01:53:02;;;;;;;13.02;8.32;;;13.90;88.80;;;;;;5002352;28;20040;-65
2021/10/15 01:55:28;;;;;;;14.20;9.35;;;13.90;88.80;;;;;;5004800;28;20038;-66
2021/10/15 01:57:53;;;;;;;11.27;8.50;;;13.90;88.30;;;;;;5002222;28;20045;-65
2021/10/15 02:00:19;;;;;;;11.75;8.35;;;13.80;88.60;;;;;;5004468;28;20733;-65
2021/10/15 02:02:45;;;;;;;11.52;8.43;;;13.80;88.60;;;;;;5003531;28;20053;-66
2021/10/15 02:05:13;;;;;;;12.85;8.30;;;13.90;88.60;;;;;;5001704;28;20029;-64
2021/10/15 02:07:41;;;;;;;13.25;8.38;;;13.80;88.20;;;;;;5003495;28;20037;-64
2021/10/15 02:10:08;;;;;;;11.65;7.95;;;13.70;88.20;;;;;;5003627;28;20210;-65
2021/10/15 02:12:35;;;;;;;12.25;9.13;;;13.60;89.10;;;;;;5004434;28;20042;-64
2021/10/15 02:15:00;;;;;;;15.43;8.65;;;13.70;88.60;;;;;;5002454;28;20050;-64
2021/10/15 02:17:26;;;;;;;11.48;8.45;;;13.60;88.80;;;;;;5002028;28;20099;-64
2021/10/15 02:19:52;;;;;;;10.80;8.55;;;13.70;89.10;;;;;;5003898;28;20604;-64
2021/10/15 02:22:18;;;;;;;13.68;9.10;;;13.60;88.90;;;;;;5005155;28;20169;-64
2021/10/15 02:24:43;;;;;;;15.68;9.07;;;13.70;88.60;;;;;;5003500;28;20034;-64
2021/10/15 02:27:09;;;;;;;11.02;8.15;;;13.70;89.00;;;;;;5004368;28;20037;-64
2021/10/15 02:29:34;;;;;;;13.40;9.88;;;13.70;88.50;;;;;;5003861;28;20038;-64
2021/10/15 02:32:00;;;;;;;13.30;9.15;;;13.70;88.50;;;;;;4986503;28;20045;-64
2021/10/15 02:34:26;;;;;;;10.88;7.82;;;13.70;88.20;;;;;;4985708;28;20498;-64
2021/10/15 02:36:52;;;;;;;11.45;8.60;;;13.70;88.20;;;;;;5001872;28;20978;-65
2021/10/15 02:39:18;;;;;;;15.55;8.85;;;13.70;88.40;;;;;;5001579;28;20985;-64
2021/10/15 02:41:44;;;;;;;11.32;7.28;;;13.60;88.10;;;;;;5000957;28;20087;-64
2021/10/15 02:44:12;;;;;;;15.55;8.57;;;13.50;88.60;;;;;;5002242;28;20037;-64
2021/10/15 02:46:38;;;;;;;12.50;8.32;;;13.50;88.90;;;;;;5003564;28;20037;-64
2021/10/15 02:49:05;;;;;;;13.30;9.23;;;13.40;88.80;;;;;;5000654;28;20144;-64
2021/10/15 02:51:31;;;;;;;10.80;8.18;;;13.50;88.90;;;;;;5006995;28;20044;-64
2021/10/15 02:53:57;;;;;;;12.05;8.18;;;13.50;88.40;;;;;;5008675;28;20053;-64
2021/10/15 02:56:23;;;;;;;11.38;8.00;;;13.40;88.60;;;;;;5005250;28;20042;-64
2021/10/15 02:58:48;;;;;;;9.77;8.02;;;13.40;88.70;;;;;;5002652;28;20065;-64
2021/10/15 03:01:14;;;;;;;11.40;7.97;;;13.40;88.60;;;;;;5000675;28;20406;-64
2021/10/15 03:03:40;;;;;;;13.20;8.45;;;13.50;88.60;;;;;;5000739;28;20096;-64
2021/10/15 03:06:06;;;;;;;11.73;7.97;;;13.50;88.40;;;;;;5000872;28;20157;-64
2021/10/15 03:08:32;;;;;;;12.27;7.60;;;13.50;88.30;;;;;;5000075;28;20058;-64
2021/10/15 03:10:58;;;;;;;12.95;7.35;;;13.60;87.20;;;;;;4999166;28;20113;-64
2021/10/15 03:13:24;;;;;;;14.13;8.05;;;13.50;87.60;;;;;;5000210;28;20041;-64
2021/10/15 03:15:50;;;;;;;8.93;6.88;;;13.50;87.90;;;;;;5002625;28;20097;-64
2021/10/15 03:18:16;;;;;;;11.45;7.88;;;13.60;87.80;;;;;;5002809;28;20026;-64
2021/10/15 03:20:42;;;;;;;9.60;7.38;;;13.60;87.50;;;;;;4997685;28;20034;-64
2021/10/15 03:23:08;;;;;;;12.50;7.38;;;13.60;87.60;;;;;;5003089;28;20033;-65
2021/10/15 03:25:34;;;;;;;11.85;7.13;;;13.60;87.00;;;;;;5001313;28;20038;-64
2021/10/15 03:27:59;;;;;;;14.25;8.20;;;13.60;87.10;;;;;;5002318;28;20095;-64
2021/10/15 03:30:26;;;;;;;13.82;7.65;;;13.50;87.40;;;;;;5003551;28;20153;-63
2021/10/15 03:32:52;;;;;;;10.32;7.90;;;13.40;88.00;;;;;;4984686;28;20116;-64
2021/10/15 03:35:18;;;;;;;9.73;7.40;;;13.40;87.90;;;;;;4984546;28;20818;-64
2021/10/15 03:37:44;;;;;;;9.35;6.38;;;13.50;87.60;;;;;;5001057;28;20052;-64
2021/10/15 03:40:11;;;;;;;11.00;7.00;;;13.40;87.60;;;;;;5002371;28;20164;-64
2021/10/15 03:42:36;;;;;;;10.25;6.82;;;13.40;88.10;;;;;;5000277;28;20037;-64
2021/10/15 03:45:04;;;;;;;10.55;7.05;;;13.40;88.00;;;;;;5001309;28;20030;-64
2021/10/15 03:47:31;;;;;;;12.57;7.93;;;13.30;88.30;;;;;;5002599;28;20030;-64
2021/10/15 03:49:56;;;;;;;10.15;7.68;;;13.30;88.30;;;;;;4983073;28;20026;-64
2021/10/15 03:52:22;;;;;;;9.73;6.57;;;13.30;88.50;;;;;;5000559;28;20034;-64
2021/10/15 03:54:48;;;;;;;9.38;6.85;;;13.30;88.20;;;;;;5001971;28;20161;-64
2021/10/15 03:57:13;;;;;;;10.65;7.07;;;13.30;88.70;;;;;;5001959;28;20033;-64
2021/10/15 03:59:39;;;;;;;11.07;7.15;;;13.30;88.30;;;;;;5002278;28;20509;-64
2021/10/15 04:02:04;;;;;;;13.63;7.20;;;13.20;88.70;;;;;;5001674;28;20844;-64
2021/10/15 04:04:30;;;;;;;8.15;5.95;;;13.30;88.60;;;;;;5001072;28;20209;-64
2021/10/15 04:06:57;;;;;;;9.27;6.65;;;13.30;88.30;;;;;;4985354;28;20045;-64
2021/10/15 04:09:22;;;;;;;10.55;6.65;;;13.40;88.40;;;;;;5002724;28;20168;-64
2021/10/15 04:11:49;;;;;;;9.57;6.78;;;13.50;87.90;;;;;;5001561;28;20631;-64
2021/10/15 04:14:14;;;;;;;10.02;6.22;;;13.50;87.70;;;;;;4998507;28;20034;-64
2021/10/15 04:16:40;;;;;;;10.50;7.47;;;13.50;87.70;;;;;;5000559;28;20042;-63
2021/10/15 04:19:06;;;;;;;10.05;7.32;;;13.50;87.20;;;;;;4981004;28;20034;-64
2021/10/15 04:21:32;;;;;;;10.60;6.40;;;13.50;87.60;;;;;;5000479;28;20037;-64
2021/10/15 04:23:58;;;;;;;9.77;6.93;;;13.40;87.80;;;;;;4981613;28;20494;-64
2021/10/15 04:26:23;;;;;;;10.02;6.95;;;13.30;88.10;;;;;;4999172;28;20111;-64
2021/10/15 04:28:49;;;;;;;10.73;6.75;;;13.40;88.10;;;;;;4982887;28;20037;-64
2021/10/15 04:31:15;;;;;;;11.13;6.60;;;13.40;87.60;;;;;;4997817;28;20065;-64
2021/10/15 04:33:40;;;;;;;9.98;7.07;;;13.40;87.70;;;;;;5000840;28;20034;-64
2021/10/15 04:36:06;;;;;;;8.88;6.78;;;13.30;87.80;;;;;;5000421;28;20034;-65
2021/10/15 04:38:32;;;;;;;10.30;6.65;;;13.20;88.50;;;;;;5001093;28;20034;-64
2021/10/15 04:40:57;;;;;;;11.90;6.70;;;13.20;88.60;;;;;;4981667;28;20030;-64
2021/10/15 04:43:23;;;;;;;10.70;6.82;;;13.30;88.20;;;;;;5002575;28;20026;-64
2021/10/15 04:45:49;;;;;;;8.70;6.78;;;13.30;88.30;;;;;;5000857;28;20083;-64
2021/10/15 04:48:15;;;;;;;8.75;6.68;;;13.30;88.20;;;;;;4990702;28;20041;-64
2021/10/15 04:50:40;;;;;;;8.88;6.50;;;13.40;87.80;;;;;;5002784;28;20065;-64
2021/10/15 04:53:07;;;;;;;9.32;6.22;;;13.40;87.90;;;;;;5000500;28;20038;-64
2021/10/15 04:55:33;;;;;;;9.50;6.57;;;13.40;87.60;;;;;;5001134;28;20065;-64
2021/10/15 04:58:00;;;;;;;9.93;6.18;;;13.30;87.80;;;;;;5001951;28;20099;-64
2021/10/15 05:00:30;;;;;;;10.65;6.13;;;13.40;87.70;;;;;;4999209;28;20038;-64
2021/10/15 05:02:57;;;;;;;13.00;6.90;;;13.40;87.80;;;;;;4998368;28;20037;-64
2021/10/15 05:05:25;;;;;;;9.23;6.35;;;13.30;87.80;;;;;;5001431;28;20030;-64
2021/10/15 05:07:51;;;;;;;11.25;6.20;;;13.30;87.80;;;;;;5000806;28;20356;-64
2021/10/15 05:10:21;;;;;;;9.25;6.40;;;13.40;88.00;;;;;;5000996;28;20030;-64
2021/10/15 05:12:49;;;;;;;9.80;6.10;;;13.40;87.60;;;;;;5001169;28;20137;-64
2021/10/15 05:15:15;;;;;;;9.07;6.00;;;13.40;87.80;;;;;;4999126;28;20391;-64
2021/10/15 05:17:41;;;;;;;11.02;6.00;;;13.40;87.60;;;;;;4989696;28;20073;-64
2021/10/15 05:20:09;;;;;;;13.05;6.25;;;13.40;87.40;;;;;;4999383;28;20109;-64
2021/10/15 05:22:35;;;;;;;9.32;5.75;;;13.50;87.40;;;;;;5000782;28;20053;-65
2021/10/15 05:25:01;;;;;;;8.65;6.30;;;13.50;87.10;;;;;;5002322;28;20127;-65
2021/10/15 05:27:27;;;;;;;12.32;6.10;;;13.50;87.20;;;;;;5001727;28;20064;-65
2021/10/15 05:29:55;;;;;;;6.65;5.40;;;13.50;87.30;;;;;;5003051;28;20121;-65
2021/10/15 05:32:21;;;;;;;8.60;5.22;;;13.50;87.30;;;;;;4985209;28;20045;-65
2021/10/15 05:34:47;;;;;;;11.18;5.75;;;13.40;87.20;;;;;;4988154;28;20124;-65
2021/10/15 05:37:14;;;;;;;13.55;6.68;;;13.50;87.40;;;;;;5004197;28;20044;-65
2021/10/15 05:39:40;;;;;;;8.55;5.10;;;13.50;87.20;;;;;;4984624;28;20660;-65
2021/10/15 05:42:06;;;;;;;7.13;4.90;;;13.50;87.00;;;;;;5004710;28;20129;-65
2021/10/15 05:44:32;;;;;;;9.25;5.30;;;13.50;87.20;;;;;;5003746;28;20026;-66
2021/10/15 05:47:05;;;;;;;7.78;5.70;;;13.50;87.30;;;;;;5003357;28;20044;-66
2021/10/15 05:49:32;;;;;;;7.93;4.72;;;13.50;87.10;;;;;;5005255;28;20493;-65
2021/10/15 05:52:10;;;;;;;9.20;5.30;;;13.40;87.40;;;;;;5005248;28;20048;-65
2021/10/15 06:00:08;;;;;;;8.27;5.10;;;13.50;87.40;;;;;;5004146;28;20153;-66
2021/10/15 06:02:42;;;;;;;7.83;4.70;;;13.40;87.30;;;;;;5004914;28;20041;-65
2021/10/15 06:15:49;;;;;;;7.93;4.65;;;13.50;86.90;;;;;;5003723;28;20042;-70
2021/10/15 06:18:17;;;;;;;6.35;4.22;;;13.50;87.30;;;;;;5001436;28;20072;-70
2021/10/15 06:20:43;;;;;;;8.20;4.43;;;13.60;86.90;;;;;;5003918;28;20049;-66
2021/10/15 06:23:11;;;;;;;8.32;3.95;;;13.60;86.70;;;;;;5004191;28;20033;-65
2021/10/15 06:25:37;;;;;;;8.73;4.47;;;13.70;86.00;;;;;;5003928;28;20025;-66
2021/10/15 06:28:03;;;;;;;5.80;3.88;;;13.70;86.00;;;;;;4986582;28;20036;-66
2021/10/15 06:30:30;;;;;;;9.07;4.10;;;13.60;86.30;;;;;;5001728;28;20061;-67
2021/10/15 06:32:56;;;;;;;5.03;3.80;;;13.60;86.30;;;;;;4985165;28;20121;-66
2021/10/15 06:35:22;;;;;;;7.22;3.58;;;13.60;86.30;;;;;;5003624;28;20069;-67
2021/10/15 06:37:48;;;;;;;6.95;4.22;;;13.60;86.00;;;;;;5002237;28;20042;-67
2021/10/15 06:40:14;;;;;;;5.72;3.67;;;13.70;85.90;;;;;;5003053;28;20084;-69
2021/10/15 06:42:40;;;;;;;5.45;3.47;;;13.70;85.70;;;;;;5003850;28;20501;-68
2021/10/15 06:45:06;;;;;;;6.85;3.33;;;13.70;85.30;;;;;;5004608;28;20505;-67
2021/10/15 06:47:32;;;;;;;7.10;3.80;;;13.70;85.40;;;;;;5001644;28;20041;-66
2021/10/15 06:49:58;;;;;;;5.78;3.67;;;13.70;84.80;;;;;;5003937;28;20049;-66
2021/10/15 06:52:24;;;;;;;6.53;3.75;;;13.70;85.20;;;;;;4995079;28;20034;-65
2021/10/15 06:54:51;;;;;;;4.90;3.20;;;13.70;85.10;;;;;;4989078;28;20038;-65
2021/10/15 06:57:16;;;;;;;5.43;3.33;;;13.70;85.20;;;;;;4991669;23;20061;-66
2021/10/15 06:59:42;;;;;;;12.90;3.67;;;13.70;85.70;;;;;;4992041;28;20038;-65
2021/10/15 07:02:09;;;;;;;5.95;3.20;;;13.80;85.00;;;;;;4991874;28;20030;-65
2021/10/15 07:04:35;;;;;;;8.07;4.15;;;13.80;84.60;;;;;;4985066;28;20066;-65
2021/10/15 07:07:01;;;;;;;6.97;3.85;;;13.80;84.40;;;;;;5005114;28;20399;-65
2021/10/15 07:09:27;;;;;;;9.95;4.47;;;13.80;84.80;;;;;;5010958;28;20057;-66
2021/10/15 07:11:53;;;;;;;14.40;5.32;;;13.90;84.40;;;;;;4988068;28;20786;-68
2021/10/15 07:14:19;;;;;;;11.25;4.63;;;13.80;84.40;;;;;;4989851;28;20046;-66
2021/10/15 07:16:46;;;;;;;10.75;4.93;;;13.80;84.60;;;;;;4978262;28;20145;-66
2021/10/15 07:19:12;;;;;;;7.95;4.38;;;13.80;84.90;;;;;;4992422;28;20034;-67
2021/10/15 07:21:38;;;;;;;8.57;3.20;;;13.70;85.20;;;;;;5007974;28;20087;-67
2021/10/15 07:24:04;;;;;;;9.70;4.05;;;13.80;84.30;;;;;;5013162;28;20059;-67
2021/10/15 07:26:29;;;;;;;15.77;5.15;;;13.80;84.40;;;;;;4967952;28;20033;-67
2021/10/15 07:28:56;;;;;;;9.18;4.03;;;13.80;84.00;;;;;;5004816;28;20036;-67
2021/10/15 07:31:21;;;;;;;8.55;3.95;;;13.80;84.30;;;;;;4991076;28;20043;-67
2021/10/15 07:33:48;;;;;;;7.03;3.53;;;13.80;84.60;;;;;;5013665;28;20042;-67
2021/10/15 07:36:15;;;;;;;10.10;4.55;;;13.80;84.20;;;;;;5013330;28;20029;-67
2021/10/15 07:38:41;;;;;;;7.65;3.85;;;13.90;84.40;;;;;;4994211;28;20034;-66
2021/10/15 07:41:08;;;;;;;5.20;3.40;;;14.00;84.20;;;;;;4991311;28;20037;-66
2021/10/15 07:43:34;;;;;;;5.72;3.50;;;14.10;83.40;;;;;;5008309;28;20057;-66
2021/10/15 07:46:01;;;;;;;7.43;3.22;;;14.10;83.50;;;;;;5005939;28;20029;-66
2021/10/15 07:48:27;;;;;;;7.68;3.08;;;14.00;83.50;;;;;;5005962;28;20032;-66
2021/10/15 07:50:53;;;;;;;8.23;3.38;;;14.00;83.40;;;;;;5006369;28;20053;-66
2021/10/15 07:53:18;;;;;;;7.18;3.80;;;14.10;83.30;;;;;;5009640;28;20147;-67
2021/10/15 07:55:44;;;;;;;5.68;3.15;;;14.10;83.20;;;;;;5005454;28;20034;-66
2021/10/15 07:58:10;;;;;;;8.55;4.55;;;14.00;83.60;;;;;;5015083;28;20643;-66
2021/10/15 08:00:38;;;;;;;10.77;3.92;;;14.10;84.00;;;;;;4991165;28;20040;-66
2021/10/15 08:03:04;;;;;;;5.68;2.95;;;14.00;83.20;;;;;;5010310;28;20049;-66
2021/10/15 08:05:30;;;;;;;5.75;3.63;;;14.00;83.40;;;;;;5016317;28;20090;-68
2021/10/15 08:07:56;;;;;;;8.50;3.33;;;14.10;83.70;;;;;;5000645;28;20037;-67
2021/10/15 08:10:22;;;;;;;4.53;2.60;;;14.10;83.50;;;;;;4979441;28;20038;-67
2021/10/15 08:12:48;;;;;;;5.72;2.35;;;14.20;83.00;;;;;;5001442;28;20042;-66
2021/10/15 08:15:15;;;;;;;5.43;2.90;;;14.30;82.70;;;;;;5011738;28;20041;-68
2021/10/15 08:17:42;;;;;;;8.68;2.60;;;14.30;82.40;;;;;;5015400;28;20048;-65
2021/10/15 08:20:08;;;;;;;5.25;2.50;;;14.20;82.00;;;;;;5021390;28;20037;-65
2021/10/15 08:22:34;;;;;;;5.20;2.63;;;14.30;82.10;;;;;;5013147;28;20052;-65
2021/10/15 08:24:59;;;;;;;4.72;2.28;;;14.30;81.80;;;;;;5001907;28;20482;-67
2021/10/15 08:27:25;;;;;;;5.50;3.00;;;14.40;81.50;;;;;;4984404;28;20486;-67
2021/10/15 08:29:51;;;;;;;6.47;3.58;;;14.30;81.20;;;;;;5001131;28;20413;-67
2021/10/15 08:32:16;;;;;;;4.90;2.60;;;14.20;82.30;;;;;;5011021;28;20149;-66
2021/10/15 08:34:42;;;;;;;5.03;2.38;;;14.30;81.50;;;;;;5013407;28;20036;-67
2021/10/15 08:37:08;;;;;;;5.07;2.53;;;14.20;81.40;;;;;;4988781;28;20052;-67
2021/10/15 08:39:34;;;;;;;7.22;3.10;;;14.30;81.90;;;;;;5016643;28;20472;-70
2021/10/15 08:42:00;;;;;;;8.25;2.85;;;14.40;81.70;;;;;;5001544;28;20054;-69
2021/10/15 08:44:34;;;;;;;5.53;1.92;;;14.50;81.10;;;;;;4982497;28;20041;-68
2021/10/15 08:47:00;;;;;;;3.25;2.15;;;14.70;80.30;;;;;;4998871;28;20072;-67
2021/10/15 08:49:26;;;;;;;5.10;2.45;;;14.80;79.50;;;;;;4998269;28;20076;-68
2021/10/15 08:51:52;;;;;;;3.92;2.15;;;14.80;79.50;;;;;;4980152;28;20041;-67
2021/10/15 08:54:18;;;;;;;7.28;2.97;;;14.80;79.40;;;;;;4997958;28;20045;-67
2021/10/15 08:56:45;;;;;;;3.80;2.33;;;14.80;79.50;;;;;;4998486;28;20044;-67
2021/10/15 08:59:14;;;;;;;4.88;2.65;;;14.90;78.50;;;;;;5003188;28;20074;-67
2021/10/15 09:01:42;;;;;;;6.13;2.72;;;14.80;78.60;;;;;;5009750;28;20799;-70
2021/10/15 09:04:08;;;;;;;5.40;2.60;;;14.70;80.20;;;;;;5006376;28;20029;-72
2021/10/15 09:06:38;;;;;;;5.75;2.30;;;14.60;79.80;;;;;;5001397;28;20581;-72
2021/10/15 09:09:05;;;;;;;7.35;2.45;;;14.60;80.50;;;;;;5012713;28;20041;-67
2021/10/15 09:11:41;;;;;;;7.32;2.80;;;14.60;80.30;;;;;;4984592;28;20167;-68
2021/10/15 09:14:09;;;;;;;6.18;2.42;;;14.60;80.40;;;;;;5015784;28;20331;-66
2021/10/15 09:16:51;;;;;;;5.60;2.65;;;14.70;79.80;;;;;;5001579;28;20029;-67
2021/10/15 09:19:23;;;;;;;4.35;2.22;;;14.90;79.60;;;;;;5004846;28;20044;-69
2021/10/15 09:22:07;;;;;;;6.22;2.15;;;14.80;78.90;;;;;;4997613;28;20037;-72
2021/10/15 09:24:42;;;;;;;4.47;2.38;;;14.90;78.80;;;;;;5017111;28;20120;-67
2021/10/15 09:27:30;;;;;;;6.90;2.40;;;15.10;78.80;;;;;;5019382;28;20768;-68
2021/10/15 09:30:02;;;;;;;5.63;2.60;;;15.20;78.00;;;;;;5000526;28;20037;-69
2021/10/15 09:32:32;;;;;;;2.83;1.95;;;15.10;77.50;;;;;;5006607;28;20710;-72
2021/10/15 09:34:59;;;;;;;3.45;1.90;;;15.00;77.70;;;;;;5013511;28;20132;-69
2021/10/15 09:37:28;;;;;;;4.57;2.35;;;15.10;78.10;;;;;;5000185;28;20093;-70
2021/10/15 09:40:22;;;;;;;4.57;2.13;;;15.00;77.90;;;;;;4987748;28;20044;-69
2021/10/15 09:42:51;;;;;;;5.90;2.17;;;14.90;78.50;;;;;;5013371;28;20499;-67
2021/10/15 09:45:41;;;;;;;5.47;2.83;;;14.90;78.40;;;;;;4997048;28;20107;-69
2021/10/15 09:48:27;;;;;;;2.88;1.77;;;15.00;78.50;;;;;;4998265;28;20072;-68
2021/10/15 09:51:15;;;;;;;7.38;2.00;;;15.10;77.30;;;;;;5001039;28;20959;-69
2021/10/15 09:54:02;;;;;;;6.68;2.17;;;15.10;75.90;;;;;;5016714;28;20048;-68
2021/10/15 09:56:53;;;;;;;6.20;2.30;;;15.10;76.50;;;;;;5001655;28;20128;-68
2021/10/15 09:59:19;;;;;;;6.78;2.25;;;14.90;75.30;;;;;;5020170;28;20115;-69
2021/10/15 10:01:45;;;;;;;5.82;2.22;;;14.90;76.20;;;;;;4988477;28;20833;-67
2021/10/15 10:04:12;;;;;;;3.83;1.80;;;14.80;76.60;;;;;;5008798;28;20104;-69
2021/10/15 10:06:38;;;;;;;4.72;1.92;;;14.80;76.00;;;;;;4983184;28;20034;-67
2021/10/15 10:09:06;;;;;;;6.40;2.22;;;14.90;76.50;;;;;;5011868;28;20030;-67
2021/10/15 10:11:32;;;;;;;5.13;2.22;;;15.00;75.50;;;;;;4983679;28;20033;-67
2021/10/15 10:13:58;;;;;;;6.20;2.28;;;15.10;75.50;;;;;;5001457;28;20037;-69
2021/10/15 10:16:25;;;;;;;2.88;2.08;;;15.10;74.90;;;;;;5003529;28;20128;-67
2021/10/15 10:18:56;;;;;;;5.85;2.40;;;14.90;75.60;;;;;;5014378;28;20041;-68
2021/10/15 10:21:26;;;;;;;6.25;2.30;;;14.90;76.10;;;;;;5008791;28;20057;-66
2021/10/15 10:24:05;;;;;;;4.68;2.25;;;14.90;75.50;;;;;;5012136;28;20129;-68
2021/10/15 10:26:43;;;;;;;3.30;2.20;;;14.90;75.90;;;;;;5019363;28;20041;-68
2021/10/15 10:29:09;;;;;;;5.20;2.10;;;14.70;76.10;;;;;;5001873;28;20033;-69
2021/10/15 10:31:35;;;;;;;3.08;2.20;;;14.80;76.40;;;;;;4995182;28;20041;-69
2021/10/15 10:34:03;;;;;;;4.15;2.40;;;14.80;76.60;;;;;;5007807;28;20040;-66
2021/10/15 10:36:31;;;;;;;4.90;2.33;;;14.80;76.00;;;;;;4995606;28;20072;-67
2021/10/15 10:39:17;;;;;;;3.50;2.25;;;14.80;77.70;;;;;;5007144;28;20049;-68
2021/10/15 10:42:07;;;;;;;4.68;2.20;;;14.80;79.00;;;;;;5013959;28;20037;-66
2021/10/15 10:44:57;;;;;;;7.68;2.38;;;14.80;79.00;;;;;;4972597;28;20476;-66
2021/10/15 10:47:25;;;;;;;3.20;2.50;;;14.90;80.20;;;;;;4993027;28;20057;-67
2021/10/15 10:50:03;;;;;;;5.75;2.50;;;14.90;78.40;;;;;;5000685;28;20510;-67
2021/10/15 10:52:35;;;;;;;5.00;2.83;;;14.90;78.10;;;;;;5018375;28;20060;-67
2021/10/15 10:55:03;;;;;;;6.35;2.85;;;14.80;78.40;;;;;;5016004;28;20046;-67
2021/10/15 10:57:38;;;;;;;8.27;2.80;;;14.80;78.60;;;;;;4981045;28;20049;-67
2021/10/15 11:00:23;;;;;;;4.45;2.80;;;14.70;78.20;;;;;;4999502;28;20026;-67
2021/10/15 11:02:54;;;;;;;5.03;2.40;;;14.60;78.50;;;;;;4996387;28;20116;-70
2021/10/15 11:05:41;;;;;;;5.32;2.45;;;14.70;79.40;;;;;;5002663;28;20038;-67
2021/10/15 11:08:30;;;;;;;4.25;3.03;;;14.70;79.90;;;;;;5007456;28;20048;-67
2021/10/15 11:11:19;;;;;;;6.72;3.47;;;14.80;79.40;;;;;;5004238;28;20439;-67
2021/10/15 11:13:45;;;;;;;5.00;3.00;;;14.80;78.80;;;;;;5012136;28;20726;-67
2021/10/15 11:16:25;;;;;;;5.47;2.92;;;14.80;79.80;;;;;;5003856;28;20140;-67
2021/10/15 11:18:51;;;;;;;5.85;3.17;;;14.60;80.60;;;;;;4996291;28;20697;-66
2021/10/15 11:21:20;;;;;;;7.78;3.53;;;14.50;80.50;;;;;;5008076;28;20045;-67
2021/10/15 11:23:46;;;;;;;6.97;3.50;;;14.40;81.00;;;;;;5004941;28;20091;-70
2021/10/15 11:26:12;;;;;;;11.18;4.60;;;14.40;81.10;;;;;;5001298;28;20034;-68
2021/10/15 11:28:38;;;;;;;9.27;3.60;;;14.40;81.80;;;;;;5007893;28;20498;-71
2021/10/15 11:31:08;;;;;;;9.80;3.45;;;14.30;81.20;;;;;;4991200;28;20049;-68
2021/10/15 11:33:38;;;;;;;10.43;3.90;;;14.20;81.90;;;;;;5002480;28;20037;-69
2021/10/15 11:36:05;;;;;;;6.20;3.55;;;14.10;83.00;;;;;;5019354;28;20037;-73
2021/10/15 11:38:30;;;;;;;5.47;3.08;;;14.10;83.60;;;;;;5019613;28;20088;-69
2021/10/15 11:40:59;;;;;;;6.97;4.28;;;14.10;85.10;;;;;;5018927;28;20049;-69
2021/10/15 11:43:37;;;;;;;7.30;3.25;;;14.20;86.00;;;;;;5012689;28;20040;-70
2021/10/15 11:46:11;;;;;;;3.40;2.65;;;14.20;86.60;;;;;;5004035;28;20033;-67
2021/10/15 11:48:37;;;;;;;6.22;2.72;;;14.20;86.80;;;;;;4999094;28;20386;-67
2021/10/15 11:51:15;;;;;;;2.30;1.50;;;14.00;86.60;;;;;;4999509;28;20045;-69
2021/10/15 11:53:42;;;;;;;1.98;1.20;;;13.90;86.90;;;;;;5012285;28;20115;-67
2021/10/15 11:56:10;;;;;;;1.77;1.48;;;13.80;86.00;;;;;;5009296;28;20053;-67
2021/10/15 11:58:37;;;;;;;2.25;1.40;;;13.70;86.20;;;;;;5001452;28;20048;-69
2021/10/15 12:01:10;;;;;;;2.80;1.50;;;13.70;87.10;;;;;;5000368;28;20033;-66
2021/10/15 12:03:43;;;;;;;1.25;1.10;;;13.60;87.20;;;;;;4999124;28;20037;-67
2021/10/15 12:06:13;;;;;;;2.22;1.73;;;13.60;86.50;;;;;;4998990;28;20069;-67
2021/10/15 12:08:39;;;;;;;3.63;2.72;;;13.60;87.00;;;;;;4999210;28;20038;-72
2021/10/15 12:11:16;;;;;;;1.48;1.10;;;13.60;87.80;;;;;;5009520;28;20045;-67
2021/10/15 12:13:42;;;;;;;1.30;1.00;;;13.70;87.30;;;;;;5007051;28;20152;-68
2021/10/15 12:16:20;;;;;;;3.13;1.10;;;13.60;87.60;;;;;;5003467;28;20046;-70
2021/10/15 12:18:54;;;;;;;1.70;0.90;;;13.60;87.30;;;;;;4998207;28;20102;-66
2021/10/15 12:21:20;;;;;;;0.85;0.75;;;13.60;88.00;;;;;;5003603;28;20204;-68
2021/10/15 12:23:53;;;;;;;1.17;0.90;;;13.60;88.20;;;;;;5010836;28;20822;-67
2021/10/15 12:26:20;;;;;;;2.25;1.23;;;13.60;87.90;;;;;;4993893;28;20037;-66
2021/10/15 12:28:46;;;;;;;1.45;0.90;;;13.60;88.50;;;;;;5010869;28;20033;-70
2021/10/15 12:31:34;;;;;;;1.70;0.98;;;13.60;87.70;;;;;;5000307;28;20037;-67
2021/10/15 12:34:08;;;;;;;1.13;1.00;;;13.60;88.00;;;;;;5017263;28;20036;-71
2021/10/15 12:36:36;;;;;;;2.35;1.25;;;13.60;87.90;;;;;;5015733;28;20038;-71
2021/10/15 12:39:24;;;;;;;2.47;1.50;;;13.60;88.20;;;;;;4965068;28;20762;-73
2021/10/15 12:41:52;;;;;;;1.77;0.90;;;13.60;87.80;;;;;;4980717;28;20409;-72
2021/10/15 12:44:23;;;;;;;0.90;0.90;;;13.60;88.00;;;;;;4980154;28;20569;-72
2021/10/15 12:47:04;;;;;;;2.00;1.00;;;13.60;88.50;;;;;;5002990;28;20041;-73
2021/10/15 12:49:51;;;;;;;1.85;1.08;;;13.60;88.50;;;;;;4985290;28;20030;-66
2021/10/15 12:52:31;;;;;;;1.67;1.20;;;13.50;89.30;;;;;;4999051;28;20512;-66
2021/10/15 12:54:58;;;;;;;2.78;1.10;;;13.50;89.40;;;;;;4999041;28;20065;-68
2021/10/15 12:57:35;;;;;;;1.10;0.90;;;13.50;88.90;;;;;;5006328;28;20040;-67
2021/10/15 13:00:07;;;;;;;1.55;0.90;;;13.50;89.10;;;;;;5018863;28;20470;-69
2021/10/15 13:02:33;;;;;;;1.27;0.93;;;13.50;89.20;;;;;;5010493;28;20045;-68
2021/10/15 13:05:01;;;;;;;1.58;1.02;;;13.40;88.80;;;;;;5003692;28;20038;-67